sensor_id;sensor_type;location;lat;lon;timestamp;P1;durP1;ratioP1;P2;durP2;ratioP2
20456;SDS011;10387;51.102;6.848;2024-01-10T00:01:47;14.43;;;9.50;;
20456;SDS011;10387;51.102;6.848;2024-01-10T00:04:13;14.83;;;9.10;;
20456;SDS011;10387;51.102;6.848;2024-01-10T00:06:42;12.03;;;8.83;;
20456;SDS011;10387;51.102;6.848;2024-01-10T00:09:09;13.33;;;9.60;;
20456;SDS011;10387;51.102;6.848;2024-01-10T00:11:35;14.20;;;8.30;;
20456;SDS011;10387;51.102;6.848;2024-01-10T00:14:01;11.63;;;8.53;;
20456;SDS011;10387;51.102;6.848;2024-01-10T00:16:29;12.00;;;8.70;;
20456;SDS011;10387;51.102;6.848;2024-01-10T00:18:55;14.63;;;9.43;;
20456;SDS011;10387;51.102;6.848;2024-01-10T00:21:21;17.87;;;9.43;;
20456;SDS011;10387;51.102;6.848;2024-01-10T00:23:47;14.00;;;8.40;;
20456;SDS011;10387;51.102;6.848;2024-01-10T00:26:14;16.03;;;9.73;;
20456;SDS011;10387;51.102;6.848;2024-01-10T00:28:44;11.37;;;8.47;;
20456;SDS011;10387;51.102;6.848;2024-01-10T00:31:11;15.57;;;8.83;;
20456;SDS011;10387;51.102;6.848;2024-01-10T00:33:38;13.70;;;8.60;;
20456;SDS011;10387;51.102;6.848;2024-01-10T00:36:04;13.50;;;7.67;;
20456;SDS011;10387;51.102;6.848;2024-01-10T00:38:31;11.97;;;9.00;;
20456;SDS011;10387;51.102;6.848;2024-01-10T00:40:57;11.33;;;8.73;;
20456;SDS011;10387;51.102;6.848;2024-01-10T00:43:23;13.50;;;8.50;;
20456;SDS011;10387;51.102;6.848;2024-01-10T00:45:50;11.30;;;8.80;;
20456;SDS011;10387;51.102;6.848;2024-01-10T00:48:16;11.40;;;8.10;;
20456;SDS011;10387;51.102;6.848;2024-01-10T00:50:42;10.93;;;7.93;;
20456;SDS011;10387;51.102;6.848;2024-01-10T00:53:13;11.80;;;8.43;;
20456;SDS011;10387;51.102;6.848;2024-01-10T00:55:39;11.87;;;8.40;;
20456;SDS011;10387;51.102;6.848;2024-01-10T00:58:05;12.67;;;8.23;;
20456;SDS011;10387;51.102;6.848;2024-01-10T01:00:31;11.83;;;8.40;;
20456;SDS011;10387;51.102;6.848;2024-01-10T01:02:58;11.53;;;8.83;;
20456;SDS011;10387;51.102;6.848;2024-01-10T01:05:24;12.30;;;9.33;;
20456;SDS011;10387;51.102;6.848;2024-01-10T01:07:50;11.93;;;8.13;;
20456;SDS011;10387;51.102;6.848;2024-01-10T01:10:17;15.27;;;8.70;;
20456;SDS011;10387;51.102;6.848;2024-01-10T01:12:43;12.70;;;9.07;;
20456;SDS011;10387;51.102;6.848;2024-01-10T01:15:10;13.57;;;8.20;;
20456;SDS011;10387;51.102;6.848;2024-01-10T01:17:37;14.83;;;8.47;;
20456;SDS011;10387;51.102;6.848;2024-01-10T01:20:03;14.30;;;8.23;;
20456;SDS011;10387;51.102;6.848;2024-01-10T01:22:30;14.50;;;8.17;;
20456;SDS011;10387;51.102;6.848;2024-01-10T01:24:56;11.33;;;7.97;;
20456;SDS011;10387;51.102;6.848;2024-01-10T01:27:22;14.37;;;8.63;;
20456;SDS011;10387;51.102;6.848;2024-01-10T01:29:49;13.83;;;7.83;;
20456;SDS011;10387;51.102;6.848;2024-01-10T01:32:16;11.17;;;8.33;;
20456;SDS011;10387;51.102;6.848;2024-01-10T01:34:42;13.30;;;8.73;;
20456;SDS011;10387;51.102;6.848;2024-01-10T01:37:08;13.30;;;8.30;;
20456;SDS011;10387;51.102;6.848;2024-01-10T01:39:34;10.77;;;7.67;;
20456;SDS011;10387;51.102;6.848;2024-01-10T01:42:26;12.97;;;7.77;;
20456;SDS011;10387;51.102;6.848;2024-01-10T01:44:52;12.57;;;8.33;;
20456;SDS011;10387;51.102;6.848;2024-01-10T01:47:19;11.37;;;8.03;;
20456;SDS011;10387;51.102;6.848;2024-01-10T01:49:45;14.67;;;8.07;;
20456;SDS011;10387;51.102;6.848;2024-01-10T01:52:12;12.90;;;8.80;;
20456;SDS011;10387;51.102;6.848;2024-01-10T01:54:38;13.83;;;8.47;;
20456;SDS011;10387;51.102;6.848;2024-01-10T01:57:05;13.40;;;8.43;;
20456;SDS011;10387;51.102;6.848;2024-01-10T01:59:33;14.27;;;8.70;;
20456;SDS011;10387;51.102;6.848;2024-01-10T02:01:59;12.00;;;7.90;;
20456;SDS011;10387;51.102;6.848;2024-01-10T02:04:26;13.07;;;8.60;;
20456;SDS011;10387;51.102;6.848;2024-01-10T02:06:54;12.73;;;8.07;;
20456;SDS011;10387;51.102;6.848;2024-01-10T02:09:20;12.80;;;8.17;;
20456;SDS011;10387;51.102;6.848;2024-01-10T02:11:46;12.17;;;8.37;;
20456;SDS011;10387;51.102;6.848;2024-01-10T02:14:12;14.57;;;9.23;;
20456;SDS011;10387;51.102;6.848;2024-01-10T02:16:38;12.67;;;8.80;;
20456;SDS011;10387;51.102;6.848;2024-01-10T02:19:21;12.53;;;8.40;;
20456;SDS011;10387;51.102;6.848;2024-01-10T02:21:49;12.97;;;8.07;;
20456;SDS011;10387;51.102;6.848;2024-01-10T02:24:15;12.13;;;7.73;;
20456;SDS011;10387;51.102;6.848;2024-01-10T02:26:41;12.43;;;7.63;;
20456;SDS011;10387;51.102;6.848;2024-01-10T02:29:07;17.23;;;10.00;;
20456;SDS011;10387;51.102;6.848;2024-01-10T02:31:34;14.20;;;8.97;;
20456;SDS011;10387;51.102;6.848;2024-01-10T02:34:00;10.70;;;7.70;;
20456;SDS011;10387;51.102;6.848;2024-01-10T02:36:26;12.47;;;8.67;;
20456;SDS011;10387;51.102;6.848;2024-01-10T02:38:52;11.47;;;8.27;;
20456;SDS011;10387;51.102;6.848;2024-01-10T02:41:18;13.60;;;8.27;;
20456;SDS011;10387;51.102;6.848;2024-01-10T02:43:47;13.53;;;8.40;;
20456;SDS011;10387;51.102;6.848;2024-01-10T02:46:13;12.90;;;8.30;;
20456;SDS011;10387;51.102;6.848;2024-01-10T02:48:39;10.87;;;8.23;;
20456;SDS011;10387;51.102;6.848;2024-01-10T02:51:05;12.07;;;8.00;;
20456;SDS011;10387;51.102;6.848;2024-01-10T02:53:31;15.07;;;8.53;;
20456;SDS011;10387;51.102;6.848;2024-01-10T02:55:57;11.37;;;8.23;;
20456;SDS011;10387;51.102;6.848;2024-01-10T02:58:23;11.63;;;8.40;;
20456;SDS011;10387;51.102;6.848;2024-01-10T03:00:50;10.60;;;8.37;;
20456;SDS011;10387;51.102;6.848;2024-01-10T03:03:16;13.00;;;8.40;;
20456;SDS011;10387;51.102;6.848;2024-01-10T03:05:43;13.33;;;8.77;;
20456;SDS011;10387;51.102;6.848;2024-01-10T03:08:09;10.47;;;7.93;;
20456;SDS011;10387;51.102;6.848;2024-01-10T03:10:35;11.20;;;8.07;;
20456;SDS011;10387;51.102;6.848;2024-01-10T03:13:04;10.53;;;7.90;;
20456;SDS011;10387;51.102;6.848;2024-01-10T03:15:30;13.23;;;7.93;;
20456;SDS011;10387;51.102;6.848;2024-01-10T03:17:56;13.90;;;9.00;;
20456;SDS011;10387;51.102;6.848;2024-01-10T03:20:22;13.07;;;8.83;;
20456;SDS011;10387;51.102;6.848;2024-01-10T03:22:48;12.40;;;7.50;;
20456;SDS011;10387;51.102;6.848;2024-01-10T03:25:15;11.57;;;7.77;;
20456;SDS011;10387;51.102;6.848;2024-01-10T03:27:41;14.80;;;8.40;;
20456;SDS011;10387;51.102;6.848;2024-01-10T03:30:08;12.20;;;8.40;;
20456;SDS011;10387;51.102;6.848;2024-01-10T03:32:34;14.63;;;9.33;;
20456;SDS011;10387;51.102;6.848;2024-01-10T03:35:00;13.17;;;8.13;;
20456;SDS011;10387;51.102;6.848;2024-01-10T03:37:26;12.03;;;8.33;;
20456;SDS011;10387;51.102;6.848;2024-01-10T03:39:52;11.93;;;8.27;;
20456;SDS011;10387;51.102;6.848;2024-01-10T03:42:18;13.67;;;8.43;;
20456;SDS011;10387;51.102;6.848;2024-01-10T03:44:44;11.17;;;7.20;;
20456;SDS011;10387;51.102;6.848;2024-01-10T03:47:10;11.77;;;8.17;;
20456;SDS011;10387;51.102;6.848;2024-01-10T03:49:36;11.90;;;7.93;;
20456;SDS011;10387;51.102;6.848;2024-01-10T03:52:03;10.37;;;7.77;;
20456;SDS011;10387;51.102;6.848;2024-01-10T03:54:29;10.03;;;7.57;;
20456;SDS011;10387;51.102;6.848;2024-01-10T03:56:55;13.40;;;8.93;;
20456;SDS011;10387;51.102;6.848;2024-01-10T03:59:21;12.60;;;8.23;;
20456;SDS011;10387;51.102;6.848;2024-01-10T04:01:48;12.10;;;8.00;;
20456;SDS011;10387;51.102;6.848;2024-01-10T04:04:14;8.93;;;7.13;;
20456;SDS011;10387;51.102;6.848;2024-01-10T04:06:40;11.00;;;7.83;;
20456;SDS011;10387;51.102;6.848;2024-01-10T04:09:07;11.27;;;8.27;;
20456;SDS011;10387;51.102;6.848;2024-01-10T04:11:34;13.60;;;8.27;;
20456;SDS011;10387;51.102;6.848;2024-01-10T04:14:01;12.50;;;8.40;;
20456;SDS011;10387;51.102;6.848;2024-01-10T04:16:27;11.80;;;7.90;;
20456;SDS011;10387;51.102;6.848;2024-01-10T04:18:53;12.57;;;7.97;;
20456;SDS011;10387;51.102;6.848;2024-01-10T04:21:19;13.10;;;8.40;;
20456;SDS011;10387;51.102;6.848;2024-01-10T04:23:45;13.00;;;8.63;;
20456;SDS011;10387;51.102;6.848;2024-01-10T04:26:11;15.67;;;7.80;;
20456;SDS011;10387;51.102;6.848;2024-01-10T04:28:37;10.50;;;7.93;;
20456;SDS011;10387;51.102;6.848;2024-01-10T04:31:06;14.97;;;9.40;;
20456;SDS011;10387;51.102;6.848;2024-01-10T04:33:32;11.30;;;7.93;;
20456;SDS011;10387;51.102;6.848;2024-01-10T04:35:58;12.53;;;8.07;;
20456;SDS011;10387;51.102;6.848;2024-01-10T04:38:25;14.30;;;9.87;;
20456;SDS011;10387;51.102;6.848;2024-01-10T04:40:51;12.73;;;9.20;;
20456;SDS011;10387;51.102;6.848;2024-01-10T04:43:18;13.83;;;9.57;;
20456;SDS011;10387;51.102;6.848;2024-01-10T04:45:44;14.47;;;8.13;;
20456;SDS011;10387;51.102;6.848;2024-01-10T04:48:10;13.33;;;8.30;;
20456;SDS011;10387;51.102;6.848;2024-01-10T04:50:37;11.77;;;7.57;;
20456;SDS011;10387;51.102;6.848;2024-01-10T04:53:03;14.00;;;7.77;;
20456;SDS011;10387;51.102;6.848;2024-01-10T04:55:29;13.43;;;8.80;;
20456;SDS011;10387;51.102;6.848;2024-01-10T04:57:55;13.03;;;7.77;;
20456;SDS011;10387;51.102;6.848;2024-01-10T05:00:21;12.47;;;8.03;;
20456;SDS011;10387;51.102;6.848;2024-01-10T05:02:47;11.40;;;7.73;;
20456;SDS011;10387;51.102;6.848;2024-01-10T05:05:13;14.37;;;8.77;;
20456;SDS011;10387;51.102;6.848;2024-01-10T05:07:39;13.40;;;7.97;;
20456;SDS011;10387;51.102;6.848;2024-01-10T05:10:05;11.47;;;8.03;;
20456;SDS011;10387;51.102;6.848;2024-01-10T05:12:31;12.00;;;8.23;;
20456;SDS011;10387;51.102;6.848;2024-01-10T05:14:58;13.07;;;8.37;;
20456;SDS011;10387;51.102;6.848;2024-01-10T05:17:24;13.60;;;8.60;;
20456;SDS011;10387;51.102;6.848;2024-01-10T05:19:51;14.00;;;8.47;;
20456;SDS011;10387;51.102;6.848;2024-01-10T05:22:19;19.47;;;10.47;;
20456;SDS011;10387;51.102;6.848;2024-01-10T05:24:47;21.77;;;12.97;;
20456;SDS011;10387;51.102;6.848;2024-01-10T05:27:18;16.70;;;10.27;;
20456;SDS011;10387;51.102;6.848;2024-01-10T05:29:44;12.53;;;8.80;;
20456;SDS011;10387;51.102;6.848;2024-01-10T05:32:12;14.70;;;9.80;;
20456;SDS011;10387;51.102;6.848;2024-01-10T05:34:38;15.00;;;10.77;;
20456;SDS011;10387;51.102;6.848;2024-01-10T05:37:04;14.90;;;10.17;;
20456;SDS011;10387;51.102;6.848;2024-01-10T05:39:31;16.30;;;9.43;;
20456;SDS011;10387;51.102;6.848;2024-01-10T05:41:57;12.87;;;9.93;;
20456;SDS011;10387;51.102;6.848;2024-01-10T05:44:24;13.67;;;8.97;;
20456;SDS011;10387;51.102;6.848;2024-01-10T05:46:50;15.17;;;9.00;;
20456;SDS011;10387;51.102;6.848;2024-01-10T05:49:16;14.83;;;9.13;;
20456;SDS011;10387;51.102;6.848;2024-01-10T05:51:42;12.93;;;8.43;;
20456;SDS011;10387;51.102;6.848;2024-01-10T05:54:08;14.33;;;8.83;;
20456;SDS011;10387;51.102;6.848;2024-01-10T05:56:35;11.30;;;8.43;;
20456;SDS011;10387;51.102;6.848;2024-01-10T05:59:01;11.97;;;8.60;;
20456;SDS011;10387;51.102;6.848;2024-01-10T06:01:27;11.63;;;7.50;;
20456;SDS011;10387;51.102;6.848;2024-01-10T06:03:53;13.43;;;8.10;;
20456;SDS011;10387;51.102;6.848;2024-01-10T06:06:20;11.13;;;8.60;;
20456;SDS011;10387;51.102;6.848;2024-01-10T06:08:46;14.63;;;7.67;;
20456;SDS011;10387;51.102;6.848;2024-01-10T06:11:12;13.07;;;8.80;;
20456;SDS011;10387;51.102;6.848;2024-01-10T06:13:38;11.93;;;8.77;;
20456;SDS011;10387;51.102;6.848;2024-01-10T06:16:04;15.10;;;8.67;;
20456;SDS011;10387;51.102;6.848;2024-01-10T06:18:30;11.30;;;8.27;;
20456;SDS011;10387;51.102;6.848;2024-01-10T06:20:56;12.60;;;8.53;;
20456;SDS011;10387;51.102;6.848;2024-01-10T06:23:23;12.13;;;9.20;;
20456;SDS011;10387;51.102;6.848;2024-01-10T06:25:49;15.67;;;9.87;;
20456;SDS011;10387;51.102;6.848;2024-01-10T06:28:16;11.60;;;8.03;;
20456;SDS011;10387;51.102;6.848;2024-01-10T06:30:42;15.27;;;8.47;;
20456;SDS011;10387;51.102;6.848;2024-01-10T06:33:08;11.57;;;8.27;;
20456;SDS011;10387;51.102;6.848;2024-01-10T06:35:34;18.03;;;9.63;;
20456;SDS011;10387;51.102;6.848;2024-01-10T06:38:00;16.03;;;10.70;;
20456;SDS011;10387;51.102;6.848;2024-01-10T06:40:29;12.60;;;9.43;;
20456;SDS011;10387;51.102;6.848;2024-01-10T06:42:55;14.40;;;9.77;;
20456;SDS011;10387;51.102;6.848;2024-01-10T06:45:21;17.03;;;10.37;;
20456;SDS011;10387;51.102;6.848;2024-01-10T06:47:47;13.40;;;9.47;;
20456;SDS011;10387;51.102;6.848;2024-01-10T06:50:13;14.33;;;9.63;;
20456;SDS011;10387;51.102;6.848;2024-01-10T06:52:40;15.13;;;9.43;;
20456;SDS011;10387;51.102;6.848;2024-01-10T06:55:07;13.87;;;9.67;;
20456;SDS011;10387;51.102;6.848;2024-01-10T06:57:34;15.33;;;10.07;;
20456;SDS011;10387;51.102;6.848;2024-01-10T07:00:00;14.80;;;8.70;;
20456;SDS011;10387;51.102;6.848;2024-01-10T07:02:28;13.53;;;9.10;;
20456;SDS011;10387;51.102;6.848;2024-01-10T07:04:54;14.27;;;9.17;;
20456;SDS011;10387;51.102;6.848;2024-01-10T07:07:20;12.33;;;7.80;;
20456;SDS011;10387;51.102;6.848;2024-01-10T07:09:46;12.80;;;9.03;;
20456;SDS011;10387;51.102;6.848;2024-01-10T07:12:12;13.90;;;9.37;;
20456;SDS011;10387;51.102;6.848;2024-01-10T07:14:39;14.07;;;9.17;;
20456;SDS011;10387;51.102;6.848;2024-01-10T07:17:06;14.00;;;8.63;;
20456;SDS011;10387;51.102;6.848;2024-01-10T07:19:33;16.60;;;9.93;;
20456;SDS011;10387;51.102;6.848;2024-01-10T07:21:59;14.13;;;9.10;;
20456;SDS011;10387;51.102;6.848;2024-01-10T07:24:25;11.37;;;8.27;;
20456;SDS011;10387;51.102;6.848;2024-01-10T07:26:52;17.10;;;9.10;;
20456;SDS011;10387;51.102;6.848;2024-01-10T07:29:18;12.10;;;8.60;;
20456;SDS011;10387;51.102;6.848;2024-01-10T07:31:44;13.83;;;8.73;;
20456;SDS011;10387;51.102;6.848;2024-01-10T07:34:10;13.80;;;9.90;;
20456;SDS011;10387;51.102;6.848;2024-01-10T07:36:43;14.03;;;9.10;;
20456;SDS011;10387;51.102;6.848;2024-01-10T07:39:10;12.37;;;8.57;;
20456;SDS011;10387;51.102;6.848;2024-01-10T07:41:36;13.17;;;8.43;;
20456;SDS011;10387;51.102;6.848;2024-01-10T07:44:02;14.83;;;8.37;;
20456;SDS011;10387;51.102;6.848;2024-01-10T07:46:29;12.90;;;8.57;;
20456;SDS011;10387;51.102;6.848;2024-01-10T07:48:55;14.33;;;8.60;;
20456;SDS011;10387;51.102;6.848;2024-01-10T07:51:21;14.93;;;9.43;;
20456;SDS011;10387;51.102;6.848;2024-01-10T07:53:47;16.20;;;9.77;;
20456;SDS011;10387;51.102;6.848;2024-01-10T07:56:13;10.63;;;7.83;;
20456;SDS011;10387;51.102;6.848;2024-01-10T07:58:39;14.13;;;9.03;;
20456;SDS011;10387;51.102;6.848;2024-01-10T08:01:06;13.63;;;8.50;;
20456;SDS011;10387;51.102;6.848;2024-01-10T08:03:33;13.87;;;9.00;;
20456;SDS011;10387;51.102;6.848;2024-01-10T08:06:00;12.73;;;8.63;;
20456;SDS011;10387;51.102;6.848;2024-01-10T08:08:26;17.07;;;9.23;;
20456;SDS011;10387;51.102;6.848;2024-01-10T08:10:52;13.53;;;8.03;;
20456;SDS011;10387;51.102;6.848;2024-01-10T08:13:19;13.23;;;9.10;;
20456;SDS011;10387;51.102;6.848;2024-01-10T08:15:45;17.27;;;9.83;;
20456;SDS011;10387;51.102;6.848;2024-01-10T08:18:11;13.77;;;8.87;;
20456;SDS011;10387;51.102;6.848;2024-01-10T08:20:37;15.83;;;10.17;;
20456;SDS011;10387;51.102;6.848;2024-01-10T08:23:03;16.27;;;9.57;;
20456;SDS011;10387;51.102;6.848;2024-01-10T08:25:31;13.30;;;9.27;;
20456;SDS011;10387;51.102;6.848;2024-01-10T08:27:57;13.60;;;9.20;;
20456;SDS011;10387;51.102;6.848;2024-01-10T08:30:24;13.30;;;8.70;;
20456;SDS011;10387;51.102;6.848;2024-01-10T08:32:50;17.43;;;10.60;;
20456;SDS011;10387;51.102;6.848;2024-01-10T08:35:16;18.47;;;11.63;;
20456;SDS011;10387;51.102;6.848;2024-01-10T08:37:44;16.43;;;10.20;;
20456;SDS011;10387;51.102;6.848;2024-01-10T08:40:11;20.70;;;11.57;;
20456;SDS011;10387;51.102;6.848;2024-01-10T08:42:43;16.87;;;10.63;;
20456;SDS011;10387;51.102;6.848;2024-01-10T08:45:09;18.73;;;11.03;;
20456;SDS011;10387;51.102;6.848;2024-01-10T08:47:36;17.83;;;10.00;;
20456;SDS011;10387;51.102;6.848;2024-01-10T08:50:03;15.63;;;10.80;;
20456;SDS011;10387;51.102;6.848;2024-01-10T08:52:30;15.70;;;10.83;;
20456;SDS011;10387;51.102;6.848;2024-01-10T08:54:56;21.23;;;11.63;;
20456;SDS011;10387;51.102;6.848;2024-01-10T08:57:23;18.13;;;11.67;;
20456;SDS011;10387;51.102;6.848;2024-01-10T08:59:50;20.80;;;12.40;;
20456;SDS011;10387;51.102;6.848;2024-01-10T09:02:16;21.30;;;12.57;;
20456;SDS011;10387;51.102;6.848;2024-01-10T09:04:43;20.57;;;11.87;;
20456;SDS011;10387;51.102;6.848;2024-01-10T09:07:09;18.37;;;11.70;;
20456;SDS011;10387;51.102;6.848;2024-01-10T09:09:35;22.60;;;11.40;;
20456;SDS011;10387;51.102;6.848;2024-01-10T09:12:04;20.70;;;12.50;;
20456;SDS011;10387;51.102;6.848;2024-01-10T09:14:31;15.67;;;10.93;;
20456;SDS011;10387;51.102;6.848;2024-01-10T09:16:57;18.30;;;10.70;;
20456;SDS011;10387;51.102;6.848;2024-01-10T09:19:28;19.07;;;12.73;;
20456;SDS011;10387;51.102;6.848;2024-01-10T09:21:56;18.03;;;12.17;;
20456;SDS011;10387;51.102;6.848;2024-01-10T09:24:23;22.90;;;13.00;;
20456;SDS011;10387;51.102;6.848;2024-01-10T09:26:52;18.33;;;11.97;;
20456;SDS011;10387;51.102;6.848;2024-01-10T09:29:19;14.17;;;10.43;;
20456;SDS011;10387;51.102;6.848;2024-01-10T09:31:45;19.97;;;10.93;;
20456;SDS011;10387;51.102;6.848;2024-01-10T09:34:11;15.97;;;10.53;;
20456;SDS011;10387;51.102;6.848;2024-01-10T09:36:37;17.80;;;11.47;;
20456;SDS011;10387;51.102;6.848;2024-01-10T09:39:03;18.20;;;11.77;;
20456;SDS011;10387;51.102;6.848;2024-01-10T09:41:31;17.43;;;10.97;;
20456;SDS011;10387;51.102;6.848;2024-01-10T09:44:03;16.90;;;11.07;;
20456;SDS011;10387;51.102;6.848;2024-01-10T09:46:29;17.57;;;11.13;;
20456;SDS011;10387;51.102;6.848;2024-01-10T09:48:58;17.77;;;11.00;;
20456;SDS011;10387;51.102;6.848;2024-01-10T09:51:24;20.07;;;12.20;;
20456;SDS011;10387;51.102;6.848;2024-01-10T09:53:51;17.67;;;11.57;;
20456;SDS011;10387;51.102;6.848;2024-01-10T09:56:20;17.47;;;12.10;;
20456;SDS011;10387;51.102;6.848;2024-01-10T09:58:46;17.77;;;12.20;;
20456;SDS011;10387;51.102;6.848;2024-01-10T10:01:14;15.30;;;12.20;;
20456;SDS011;10387;51.102;6.848;2024-01-10T10:03:41;19.57;;;11.47;;
20456;SDS011;10387;51.102;6.848;2024-01-10T10:06:11;17.83;;;11.70;;
20456;SDS011;10387;51.102;6.848;2024-01-10T10:08:37;18.43;;;12.67;;
20456;SDS011;10387;51.102;6.848;2024-01-10T10:11:05;17.37;;;12.07;;
20456;SDS011;10387;51.102;6.848;2024-01-10T10:13:31;18.63;;;13.13;;
20456;SDS011;10387;51.102;6.848;2024-01-10T10:16:02;18.30;;;12.70;;
20456;SDS011;10387;51.102;6.848;2024-01-10T10:18:30;19.37;;;12.63;;
20456;SDS011;10387;51.102;6.848;2024-01-10T10:21:06;18.10;;;11.80;;
20456;SDS011;10387;51.102;6.848;2024-01-10T10:23:36;16.90;;;12.13;;
20456;SDS011;10387;51.102;6.848;2024-01-10T10:26:11;20.57;;;12.70;;
20456;SDS011;10387;51.102;6.848;2024-01-10T10:28:40;18.00;;;12.87;;
20456;SDS011;10387;51.102;6.848;2024-01-10T10:31:06;19.77;;;12.03;;
20456;SDS011;10387;51.102;6.848;2024-01-10T10:33:33;19.47;;;11.67;;
20456;SDS011;10387;51.102;6.848;2024-01-10T10:35:59;20.37;;;12.40;;
20456;SDS011;10387;51.102;6.848;2024-01-10T10:38:26;20.63;;;13.13;;
20456;SDS011;10387;51.102;6.848;2024-01-10T10:40:52;16.97;;;11.67;;
20456;SDS011;10387;51.102;6.848;2024-01-10T10:43:18;17.50;;;11.57;;
20456;SDS011;10387;51.102;6.848;2024-01-10T10:45:47;15.43;;;11.03;;
20456;SDS011;10387;51.102;6.848;2024-01-10T10:48:16;14.93;;;11.53;;
20456;SDS011;10387;51.102;6.848;2024-01-10T10:50:44;14.87;;;11.30;;
20456;SDS011;10387;51.102;6.848;2024-01-10T10:53:14;15.83;;;11.37;;
20456;SDS011;10387;51.102;6.848;2024-01-10T10:55:40;14.80;;;10.90;;
20456;SDS011;10387;51.102;6.848;2024-01-10T10:58:08;17.20;;;10.27;;
20456;SDS011;10387;51.102;6.848;2024-01-10T11:00:34;15.70;;;10.13;;
20456;SDS011;10387;51.102;6.848;2024-01-10T11:03:01;13.93;;;10.90;;
20456;SDS011;10387;51.102;6.848;2024-01-10T11:05:28;35.03;;;17.83;;
20456;SDS011;10387;51.102;6.848;2024-01-10T11:07:54;21.63;;;13.57;;
20456;SDS011;10387;51.102;6.848;2024-01-10T11:10:27;17.17;;;11.43;;
20456;SDS011;10387;51.102;6.848;2024-01-10T11:21:15;14.57;;;10.40;;
20456;SDS011;10387;51.102;6.848;2024-01-10T11:23:56;14.97;;;10.47;;
20456;SDS011;10387;51.102;6.848;2024-01-10T11:26:23;18.07;;;10.67;;
20456;SDS011;10387;51.102;6.848;2024-01-10T11:28:51;15.50;;;10.63;;
20456;SDS011;10387;51.102;6.848;2024-01-10T11:31:27;17.20;;;11.73;;
20456;SDS011;10387;51.102;6.848;2024-01-10T11:33:55;16.17;;;11.20;;
20456;SDS011;10387;51.102;6.848;2024-01-10T11:36:22;16.67;;;12.17;;
20456;SDS011;10387;51.102;6.848;2024-01-10T11:38:59;16.10;;;11.57;;
20456;SDS011;10387;51.102;6.848;2024-01-10T11:41:27;17.63;;;11.57;;
20456;SDS011;10387;51.102;6.848;2024-01-10T11:46:40;15.97;;;11.47;;
20456;SDS011;10387;51.102;6.848;2024-01-10T11:49:09;18.37;;;12.07;;
20456;SDS011;10387;51.102;6.848;2024-01-10T11:51:35;18.20;;;12.53;;
20456;SDS011;10387;51.102;6.848;2024-01-10T11:54:04;16.07;;;11.63;;
20456;SDS011;10387;51.102;6.848;2024-01-10T11:56:38;16.63;;;11.93;;
20456;SDS011;10387;51.102;6.848;2024-01-10T12:01:34;19.90;;;12.70;;
20456;SDS011;10387;51.102;6.848;2024-01-10T12:04:02;21.43;;;12.23;;
20456;SDS011;10387;51.102;6.848;2024-01-10T12:06:29;18.53;;;12.23;;
20456;SDS011;10387;51.102;6.848;2024-01-10T12:08:55;20.90;;;12.53;;
20456;SDS011;10387;51.102;6.848;2024-01-10T12:11:23;16.40;;;12.33;;
20456;SDS011;10387;51.102;6.848;2024-01-10T12:13:50;20.27;;;13.57;;
20456;SDS011;10387;51.102;6.848;2024-01-10T12:16:16;15.77;;;12.63;;
20456;SDS011;10387;51.102;6.848;2024-01-10T12:18:43;19.43;;;11.97;;
20456;SDS011;10387;51.102;6.848;2024-01-10T12:21:10;21.00;;;12.57;;
20456;SDS011;10387;51.102;6.848;2024-01-10T12:23:37;19.87;;;11.87;;
20456;SDS011;10387;51.102;6.848;2024-01-10T12:26:06;17.40;;;12.67;;
20456;SDS011;10387;51.102;6.848;2024-01-10T12:28:39;18.10;;;12.63;;
20456;SDS011;10387;51.102;6.848;2024-01-10T12:31:08;21.67;;;12.97;;
20456;SDS011;10387;51.102;6.848;2024-01-10T12:33:38;18.50;;;12.93;;
20456;SDS011;10387;51.102;6.848;2024-01-10T12:36:08;18.37;;;12.20;;
20456;SDS011;10387;51.102;6.848;2024-01-10T12:38:35;19.03;;;11.47;;
20456;SDS011;10387;51.102;6.848;2024-01-10T12:41:02;29.87;;;13.90;;
20456;SDS011;10387;51.102;6.848;2024-01-10T12:43:29;20.63;;;14.03;;
20456;SDS011;10387;51.102;6.848;2024-01-10T12:48:30;20.87;;;14.17;;
20456;SDS011;10387;51.102;6.848;2024-01-10T12:50:58;19.63;;;14.07;;
20456;SDS011;10387;51.102;6.848;2024-01-10T12:53:34;23.00;;;14.33;;
20456;SDS011;10387;51.102;6.848;2024-01-10T12:56:01;25.43;;;17.47;;
20456;SDS011;10387;51.102;6.848;2024-01-10T12:58:28;18.47;;;13.40;;
20456;SDS011;10387;51.102;6.848;2024-01-10T13:00:54;19.53;;;13.70;;
20456;SDS011;10387;51.102;6.848;2024-01-10T13:03:22;24.97;;;14.97;;
20456;SDS011;10387;51.102;6.848;2024-01-10T13:05:54;20.77;;;13.67;;
20456;SDS011;10387;51.102;6.848;2024-01-10T13:08:22;17.40;;;12.80;;
20456;SDS011;10387;51.102;6.848;2024-01-10T13:10:51;21.17;;;13.90;;
20456;SDS011;10387;51.102;6.848;2024-01-10T13:13:26;21.33;;;13.57;;
20456;SDS011;10387;51.102;6.848;2024-01-10T13:15:57;18.47;;;12.53;;
20456;SDS011;10387;51.102;6.848;2024-01-10T13:18:30;17.03;;;12.40;;
20456;SDS011;10387;51.102;6.848;2024-01-10T13:21:01;23.27;;;13.27;;
20456;SDS011;10387;51.102;6.848;2024-01-10T13:23:28;21.60;;;13.80;;
20456;SDS011;10387;51.102;6.848;2024-01-10T13:25:54;20.60;;;13.80;;
20456;SDS011;10387;51.102;6.848;2024-01-10T13:28:27;19.67;;;12.23;;
20456;SDS011;10387;51.102;6.848;2024-01-10T13:31:03;17.70;;;13.03;;
20456;SDS011;10387;51.102;6.848;2024-01-10T13:33:30;21.23;;;13.20;;
20456;SDS011;10387;51.102;6.848;2024-01-10T13:35:58;22.20;;;13.33;;
20456;SDS011;10387;51.102;6.848;2024-01-10T13:38:27;18.20;;;13.53;;
20456;SDS011;10387;51.102;6.848;2024-01-10T13:41:00;20.37;;;13.23;;
20456;SDS011;10387;51.102;6.848;2024-01-10T13:43:29;21.53;;;12.90;;
20456;SDS011;10387;51.102;6.848;2024-01-10T13:46:04;19.43;;;13.17;;
20456;SDS011;10387;51.102;6.848;2024-01-10T13:48:34;17.93;;;13.37;;
20456;SDS011;10387;51.102;6.848;2024-01-10T13:51:00;20.57;;;13.67;;
20456;SDS011;10387;51.102;6.848;2024-01-10T13:53:26;18.33;;;12.50;;
20456;SDS011;10387;51.102;6.848;2024-01-10T13:55:57;17.83;;;13.40;;
20456;SDS011;10387;51.102;6.848;2024-01-10T13:58:30;18.30;;;12.70;;
20456;SDS011;10387;51.102;6.848;2024-01-10T14:01:03;20.17;;;13.83;;
20456;SDS011;10387;51.102;6.848;2024-01-10T14:03:36;19.87;;;13.67;;
20456;SDS011;10387;51.102;6.848;2024-01-10T14:06:07;22.70;;;13.07;;
20456;SDS011;10387;51.102;6.848;2024-01-10T14:08:38;23.17;;;14.33;;
20456;SDS011;10387;51.102;6.848;2024-01-10T14:11:09;19.93;;;13.40;;
20456;SDS011;10387;51.102;6.848;2024-01-10T14:13:36;18.47;;;13.23;;
20456;SDS011;10387;51.102;6.848;2024-01-10T14:16:06;21.03;;;14.37;;
20456;SDS011;10387;51.102;6.848;2024-01-10T14:18:32;21.00;;;14.30;;
20456;SDS011;10387;51.102;6.848;2024-01-10T14:20:58;22.17;;;14.37;;
20456;SDS011;10387;51.102;6.848;2024-01-10T14:23:29;24.53;;;14.07;;
20456;SDS011;10387;51.102;6.848;2024-01-10T14:25:56;21.03;;;14.07;;
20456;SDS011;10387;51.102;6.848;2024-01-10T14:28:22;18.90;;;13.57;;
20456;SDS011;10387;51.102;6.848;2024-01-10T14:30:50;20.43;;;14.30;;
20456;SDS011;10387;51.102;6.848;2024-01-10T14:33:16;19.20;;;12.87;;
20456;SDS011;10387;51.102;6.848;2024-01-10T14:35:45;20.03;;;13.30;;
20456;SDS011;10387;51.102;6.848;2024-01-10T14:38:11;22.30;;;14.63;;
20456;SDS011;10387;51.102;6.848;2024-01-10T14:40:37;22.77;;;14.87;;
20456;SDS011;10387;51.102;6.848;2024-01-10T14:43:04;20.40;;;13.47;;
20456;SDS011;10387;51.102;6.848;2024-01-10T14:45:30;21.00;;;13.90;;